Terminal Aerodrome Forecast
Issued by NWS Riverton, WY

Home | Current Version | Previous Version | Text Only | Print | Product List | Glossary On
Versions: 1 2 3 4 5 6 7 8 9 10 11 12 13 14
887
FTUS45 KRIW 101721
TAFRIW
TAF
KRIW 101721Z 1018/1118 VRB06KT P6SM SCT100 BKN200
     FM102100 24011KT P6SM BKN090
     FM110100 28015G25KT P6SM BKN080
     FM111000 36009KT P6SM VCSH BKN050
     FM111400 28007KT P6SM SCT090=

USA.gov is the U.S. government's official web portal to all federal, state and local government web resources and services.